High Beam — 3FWP2 — position and weather

sailwx.info

Track history (hours):
 
Tides and Currents Weather Stations Pressure Air Temp Water Temp Dewpoint Dewpoint Depression Visibility Wind Speed Wind Dir Waves Ship Positions

High Beam

Last reported at 2018-Jan-27 02:58 UTC. Time now 2018-Feb-23 12:35 UTC.
Position N 49°44' W 003°50'.
Warning: this ship's position is 27 days out of date.

Length 180 m; draft 12 m.

Type: Tanker. MMSI: 354070000.

Date/timePositionNaut miles runAvg speedWind from/ knotsBaromVisibWave heightAir tempDewpointWater temp
2018-Jan-27 02:58N 49°44' W 003°50'611.9
2018-Jan-27 02:30N 49°46' W 003°42'711.8
2018-Jan-27 01:55N 49°49' W 003°32'511.8
2018-Jan-27 01:30N 49°51' W 003°25'611.8
2018-Jan-27 01:00N 49°53' W 003°17'612.0
2018-Jan-27 00:30N 49°55' W 003°08'612.3
2018-Jan-27 00:00N 49°58' W 002°60'713.2
2018-Jan-26 23:30N 50°01' W 002°50'713.3
2018-Jan-26 22:59N 50°03' W 002°40'813.7
2018-Jan-26 22:24N 50°05' W 002°28'6414.6
2018-Jan-26 18:02N 50°21' W 000°52'113.0
2018-Jan-26 17:59N 50°21' W 000°50'612.6
2018-Jan-26 17:29N 50°23' W 000°41'712.5
2018-Jan-26 16:55N 50°25' W 000°30'512.1
2018-Jan-26 16:31N 50°25' W 000°22'612.0
2018-Jan-26 16:00N 50°28' W 000°14'611.5
2018-Jan-26 15:31N 50°30' W 000°05'510.8
2018-Jan-26 15:00N 50°31' E 000°03'611.9
2018-Jan-26 14:30N 50°32' E 000°12'612.2
2018-Jan-26 14:00N 50°34' E 000°21'612.7
2018-Jan-26 13:30N 50°36' E 000°31'613.0
2018-Jan-26 13:00N 50°38' E 000°40'713.7
2018-Jan-26 12:31N 50°42' E 000°49'714.0
2018-Jan-26 12:00N 50°46' E 000°58'714.2
2018-Jan-26 11:30N 50°50' E 001°07'714.4
2018-Jan-26 11:00N 50°54' E 001°17'713.9
2018-Jan-26 10:31N 50°59' E 001°25'713.4
2018-Jan-26 10:00N 51°04' E 001°32'612.8
2018-Jan-26 09:30N 51°09' E 001°39'612.4
2018-Jan-26 09:01N 51°13' E 001°45'612.2
2018-Jan-26 08:30N 51°19' E 001°50'612.0
2018-Jan-26 08:00N 51°24' E 001°54'612.3
2018-Jan-26 07:30N 51°29' E 001°60'612.4
2018-Jan-26 07:00N 51°34' E 002°07'612.2
2018-Jan-26 06:30N 51°38' E 002°13'812.3
2018-Jan-26 05:49N 51°45' E 002°21'7612.8
2018-Jan-25 23:51N 52°32' E 003°60'512.4
2018-Jan-25 23:30N 52°31' E 004°07'612.1
2018-Jan-25 23:00N 52°30' E 004°17'510.9
2018-Jan-25 22:30N 52°29' E 004°25'4 8.4
2018-Jan-25 22:00N 52°28' E 004°32'3 5.5
2018-Jan-25 21:30N 52°28' E 004°37'0 0.1
2018-Jan-25 21:01N 52°28' E 004°37'1 1.5
2018-Jan-25 20:30N 52°28' E 004°38'1 1.7
2018-Jan-25 20:00N 52°28' E 004°39'4 8.0
2018-Jan-25 19:30N 52°26' E 004°45'3 5.6
2018-Jan-25 19:00N 52°25' E 004°49'0 0.6
2018-Jan-25 18:29N 52°24' E 004°49'0 0.0
2018-Jan-25 17:59N 52°24' E 004°49'0 0.0
2018-Jan-25 17:29N 52°24' E 004°49'0 0.0
2018-Jan-25 16:59N 52°24' E 004°49'0 0.0
2018-Jan-25 16:29N 52°24' E 004°49'0 0.0
2018-Jan-25 15:59N 52°24' E 004°49'0 0.0
2018-Jan-25 15:29N 52°24' E 004°49'0 0.0
2018-Jan-25 14:59N 52°24' E 004°49'0 0.0
2018-Jan-25 14:29N 52°24' E 004°49'0 0.0
2018-Jan-25 13:59N 52°24' E 004°49'0 0.0
2018-Jan-25 13:29N 52°24' E 004°49'0 0.0
2018-Jan-25 12:59N 52°24' E 004°49'0 0.0
2018-Jan-25 12:29N 52°24' E 004°49'0 0.0
2018-Jan-25 11:59N 52°24' E 004°49'0 0.0
2018-Jan-25 11:29N 52°24' E 004°49'0 0.0
2018-Jan-25 10:59N 52°24' E 004°49'0 0.0
2018-Jan-25 10:29N 52°24' E 004°49'0 0.0
2018-Jan-25 09:59N 52°24' E 004°49'0 0.0
2018-Jan-25 09:29N 52°24' E 004°49'0 0.0
2018-Jan-25 08:59N 52°24' E 004°49'0 0.0
2018-Jan-25 08:29N 52°24' E 004°49'0 0.0
2018-Jan-25 07:59N 52°24' E 004°49'0 0.0
2018-Jan-25 07:29N 52°24' E 004°49'0 0.0
2018-Jan-25 06:59N 52°24' E 004°49'0 0.0
2018-Jan-25 06:29N 52°24' E 004°49'0 0.0
2018-Jan-25 05:59N 52°24' E 004°49'0 0.0
2018-Jan-25 05:29N 52°24' E 004°49'0 0.0
2018-Jan-25 04:59N 52°24' E 004°49'0 0.0
2018-Jan-25 04:29N 52°24' E 004°49'0 0.0
2018-Jan-25 03:59N 52°24' E 004°49'0 0.0
2018-Jan-25 03:29N 52°24' E 004°49'0 0.0
2018-Jan-25 02:59N 52°24' E 004°49'0 0.0
2018-Jan-25 02:29N 52°24' E 004°49'0 0.0
2018-Jan-25 01:59N 52°24' E 004°49'0 0.0
2018-Jan-25 01:29N 52°24' E 004°49'0 0.0
2018-Jan-25 00:59N 52°24' E 004°49'0 0.0
2018-Jan-25 00:29N 52°24' E 004°49'0 0.0
2018-Jan-24 23:59N 52°24' E 004°49'0 0.0
2018-Jan-24 23:29N 52°24' E 004°49'0 0.0
2018-Jan-24 22:59N 52°24' E 004°49'0 0.0
2018-Jan-24 22:29N 52°24' E 004°49'0 0.0
2018-Jan-24 21:59N 52°24' E 004°49'0 0.0
2018-Jan-24 21:29N 52°24' E 004°49'0 0.0
2018-Jan-24 20:59N 52°24' E 004°49'0 0.0
2018-Jan-24 20:29N 52°24' E 004°49'0 0.0
2018-Jan-24 19:59N 52°24' E 004°49'0 0.0
2018-Jan-24 19:29N 52°24' E 004°49'0 0.0
2018-Jan-24 18:59N 52°24' E 004°49'0 0.0
2018-Jan-24 18:29N 52°24' E 004°49'0 0.0
2018-Jan-24 17:59N 52°24' E 004°49'0 0.0
2018-Jan-24 17:29N 52°24' E 004°49'0 0.0
2018-Jan-24 16:59N 52°24' E 004°49'0 0.0
2018-Jan-24 16:29N 52°24' E 004°49'0 0.0
2018-Jan-24 15:59N 52°24' E 004°49'0 0.0
2018-Jan-24 15:29N 52°24' E 004°49'0 0.0
2018-Jan-24 14:56N 52°24' E 004°49'0 0.0
2018-Jan-24 14:29N 52°24' E 004°49'0 0.0
2018-Jan-24 13:59N 52°24' E 004°49'0 0.0
2018-Jan-24 13:29N 52°24' E 004°49'0 0.0
2018-Jan-24 12:59N 52°24' E 004°49'0 0.0
2018-Jan-24 12:29N 52°24' E 004°49'0 0.0
2018-Jan-24 11:59N 52°24' E 004°49'0 0.0
2018-Jan-24 11:29N 52°24' E 004°49'0 0.0
2018-Jan-24 10:59N 52°24' E 004°49'0 0.0
2018-Jan-24 10:29N 52°24' E 004°49'0 0.0
2018-Jan-24 09:59N 52°24' E 004°49'0 0.0
2018-Jan-24 09:29N 52°24' E 004°49'0 0.0
2018-Jan-24 08:59N 52°24' E 004°49'0 0.0
2018-Jan-24 08:29N 52°24' E 004°49'0 0.0
2018-Jan-24 07:59N 52°24' E 004°49'0 0.0
2018-Jan-24 07:29N 52°24' E 004°49'0 0.0
2018-Jan-24 06:59N 52°24' E 004°49'0 0.0
2018-Jan-24 06:29N 52°24' E 004°49'0 0.0
2018-Jan-24 05:59N 52°24' E 004°49'0 0.0
2018-Jan-24 05:29N 52°24' E 004°49'0 0.0
2018-Jan-24 04:59N 52°24' E 004°49'0 0.0
2018-Jan-24 04:29N 52°24' E 004°49'0 0.0
2018-Jan-24 03:59N 52°24' E 004°49'0 0.0
2018-Jan-24 03:29N 52°24' E 004°49'0 0.0
2018-Jan-24 02:59N 52°24' E 004°49'0 0.0
2018-Jan-24 02:29N 52°24' E 004°49'0 0.0
2018-Jan-24 01:59N 52°24' E 004°49'0 0.0
2018-Jan-24 01:29N 52°24' E 004°49'0 0.0
2018-Jan-24 00:59N 52°24' E 004°49'0 0.0
2018-Jan-24 00:29N 52°24' E 004°49'0 0.0
2018-Jan-23 23:59N 52°24' E 004°49'0 0.0
2018-Jan-23 23:29N 52°24' E 004°49'0 0.0
2018-Jan-23 22:59N 52°24' E 004°49'0 0.0
2018-Jan-23 22:29N 52°24' E 004°49'0 0.0
2018-Jan-23 21:59N 52°24' E 004°49'0 0.0
2018-Jan-23 21:29N 52°24' E 004°49'0 0.0
2018-Jan-23 20:59N 52°24' E 004°49'0 0.0
2018-Jan-23 20:29N 52°24' E 004°49'0 0.0
2018-Jan-23 19:59N 52°24' E 004°49'0 0.0
2018-Jan-23 19:29N 52°24' E 004°49'0 0.0
2018-Jan-23 18:59N 52°24' E 004°49'0 0.0
2018-Jan-23 18:29N 52°24' E 004°49'0 0.0
2018-Jan-23 17:59N 52°24' E 004°49'0 0.0
2018-Jan-23 17:29N 52°24' E 004°49'0 0.0
2018-Jan-23 16:59N 52°24' E 004°49'0 0.0
2018-Jan-23 16:29N 52°24' E 004°49'0 0.0
2018-Jan-23 15:59N 52°24' E 004°49'0 0.0
2018-Jan-23 15:29N 52°24' E 004°49'0 0.0
2018-Jan-23 14:59N 52°24' E 004°49'0 0.1
2018-Jan-23 14:29N 52°24' E 004°49'0 0.1
2018-Jan-23 13:59N 52°24' E 004°49'0 0.0
2018-Jan-23 13:29N 52°24' E 004°49'0 0.0
2018-Jan-23 12:59N 52°24' E 004°49'0 0.0
2018-Jan-23 12:29N 52°24' E 004°49'0 0.0
2018-Jan-23 11:59N 52°24' E 004°49'0 0.0
2018-Jan-23 11:29N 52°24' E 004°49'0 0.0
2018-Jan-23 10:59N 52°24' E 004°49'0 0.0
2018-Jan-23 10:29N 52°24' E 004°49'0 0.0
2018-Jan-23 09:59N 52°24' E 004°49'0 0.0
2018-Jan-23 09:29N 52°24' E 004°49'0 0.0
2018-Jan-23 08:59N 52°24' E 004°49'0 0.0
2018-Jan-23 08:29N 52°24' E 004°49'0 0.0
2018-Jan-23 07:59N 52°24' E 004°49'0 0.0
2018-Jan-23 07:29N 52°24' E 004°49'0 0.0
2018-Jan-23 06:59N 52°24' E 004°49'0 0.0
2018-Jan-23 06:29N 52°24' E 004°49'0 0.0
2018-Jan-23 05:59N 52°24' E 004°49'0 0.0
2018-Jan-23 05:29N 52°24' E 004°49'0 0.1
2018-Jan-23 04:59N 52°24' E 004°49'0 0.1
2018-Jan-23 04:29N 52°24' E 004°49'0 0.0
2018-Jan-23 03:59N 52°24' E 004°49'0 0.0
2018-Jan-23 03:29N 52°24' E 004°49'0 0.0
2018-Jan-23 02:59N 52°24' E 004°49'0 0.0
2018-Jan-23 02:29N 52°24' E 004°49'0 0.0
2018-Jan-23 01:59N 52°24' E 004°49'0 0.0
2018-Jan-23 01:29N 52°24' E 004°49'0 0.0
2018-Jan-23 00:59N 52°24' E 004°49'0 0.0
2018-Jan-23 00:29N 52°24' E 004°49'0 0.0
2018-Jan-22 23:59N 52°24' E 004°49'0 0.0
2018-Jan-22 23:29N 52°24' E 004°49'0 0.0
2018-Jan-22 22:59N 52°24' E 004°49'0 0.0
2018-Jan-22 22:29N 52°24' E 004°49'0 0.0
2018-Jan-22 21:59N 52°24' E 004°49'0 0.0
2018-Jan-22 21:29N 52°24' E 004°49'0 0.0
2018-Jan-22 20:59N 52°24' E 004°49'0 0.0
2018-Jan-22 20:29N 52°24' E 004°49'0 0.0
2018-Jan-22 19:59N 52°24' E 004°49'0 0.0
2018-Jan-22 19:29N 52°24' E 004°49'0 0.0
2018-Jan-22 18:59N 52°24' E 004°49'0 0.0
2018-Jan-22 18:29N 52°24' E 004°49'0 0.0
2018-Jan-22 17:59N 52°24' E 004°49'0 0.0
2018-Jan-22 17:29N 52°24' E 004°49'0 0.0
2018-Jan-22 16:59N 52°24' E 004°49'0 0.0
2018-Jan-22 16:29N 52°24' E 004°49'0 0.0
2018-Jan-22 15:59N 52°24' E 004°49'0 0.0
2018-Jan-22 15:29N 52°24' E 004°49'0 0.0
2018-Jan-22 14:59N 52°24' E 004°49'0 0.0
2018-Jan-22 14:29N 52°24' E 004°49'0 0.0
2018-Jan-22 13:59N 52°24' E 004°49'0 0.0
2018-Jan-22 13:29N 52°24' E 004°49'0 0.0
2018-Jan-22 12:59N 52°24' E 004°49'0 0.0
2018-Jan-22 12:29N 52°24' E 004°49'0 0.0
2018-Jan-22 11:59N 52°24' E 004°49'0 0.0
2018-Jan-22 11:29N 52°24' E 004°49'0 0.0
2018-Jan-22 10:59N 52°24' E 004°49'0 0.0
2018-Jan-22 10:29N 52°24' E 004°49'0 0.0
2018-Jan-22 09:59N 52°24' E 004°49'0 0.0
2018-Jan-22 09:29N 52°24' E 004°49'0 0.0
2018-Jan-22 08:59N 52°24' E 004°49'0 0.0
2018-Jan-22 08:29N 52°24' E 004°49'1 2.0
2018-Jan-22 08:00N 52°25' E 004°49'1 2.9
2018-Jan-22 07:30N 52°24' E 004°47'0 0.7
2018-Jan-22 06:59N 52°24' E 004°46'0 0.0
2018-Jan-22 06:29N 52°24' E 004°46'0 0.0
2018-Jan-22 05:59N 52°24' E 004°46'0 0.0
2018-Jan-22 05:29N 52°24' E 004°46'0 0.0
2018-Jan-22 04:59N 52°24' E 004°46'0 0.0
2018-Jan-22 04:29N 52°24' E 004°46'0 0.0
2018-Jan-22 03:59N 52°24' E 004°46'0 0.0
2018-Jan-22 03:29N 52°24' E 004°46'0 0.0
2018-Jan-22 02:59N 52°24' E 004°46'0 0.0
2018-Jan-22 02:29N 52°24' E 004°46'0 0.0
2018-Jan-22 01:59N 52°24' E 004°46'0 0.0
2018-Jan-22 01:29N 52°24' E 004°46'0 0.0
2018-Jan-22 00:59N 52°24' E 004°46'0 0.0
2018-Jan-22 00:29N 52°24' E 004°46'0 0.0
2018-Jan-21 23:59N 52°24' E 004°46'0 0.0
2018-Jan-21 23:29N 52°24' E 004°46'0 0.0
2018-Jan-21 22:59N 52°24' E 004°46'0 0.0
2018-Jan-21 22:29N 52°24' E 004°46'0 0.0
2018-Jan-21 21:59N 52°24' E 004°46'0 0.0
2018-Jan-21 21:29N 52°24' E 004°46'0 0.0
2018-Jan-21 20:59N 52°24' E 004°46'0 0.0
2018-Jan-21 20:29N 52°24' E 004°46'0 0.0
2018-Jan-21 19:59N 52°24' E 004°46'0 0.0
2018-Jan-21 19:29N 52°24' E 004°46'0 0.0
2018-Jan-21 18:59N 52°24' E 004°46'0 0.0
2018-Jan-21 18:26N 52°24' E 004°46'0 0.0
2018-Jan-21 17:59N 52°24' E 004°46'0 0.0
2018-Jan-21 17:29N 52°24' E 004°46'0 0.0
2018-Jan-21 16:59N 52°24' E 004°46'0 0.0
2018-Jan-21 16:29N 52°24' E 004°46'0 0.0
2018-Jan-21 15:59N 52°24' E 004°46'0 0.0
2018-Jan-21 15:29N 52°24' E 004°46'0 0.0
2018-Jan-21 14:59N 52°24' E 004°46'0 0.0
2018-Jan-21 14:29N 52°24' E 004°46'0 0.0
2018-Jan-21 13:59N 52°24' E 004°46'0 0.0
2018-Jan-21 13:29N 52°24' E 004°46'0 0.0
2018-Jan-21 12:59N 52°24' E 004°46'0 0.0
2018-Jan-21 12:29N 52°24' E 004°46'0 0.0
2018-Jan-21 11:59N 52°24' E 004°46'0 0.0
2018-Jan-21 11:29N 52°24' E 004°46'0 0.0
2018-Jan-21 10:59N 52°24' E 004°46'0 0.0
2018-Jan-21 10:29N 52°24' E 004°46'0 0.0
2018-Jan-21 09:59N 52°24' E 004°46'0 0.0
2018-Jan-21 09:29N 52°24' E 004°46'0 0.0
2018-Jan-21 08:59N 52°24' E 004°46'0 0.0
2018-Jan-21 08:29N 52°24' E 004°46'0 0.0
2018-Jan-21 07:59N 52°24' E 004°46'0 0.0
2018-Jan-21 07:29N 52°24' E 004°46'0 0.0
2018-Jan-21 06:59N 52°24' E 004°46'0 0.0
2018-Jan-21 06:29N 52°24' E 004°46'0 0.0
2018-Jan-21 05:59N 52°24' E 004°46'0 0.0
2018-Jan-21 05:29N 52°24' E 004°46'0 0.0
2018-Jan-21 04:59N 52°24' E 004°46'0 0.0
2018-Jan-21 04:29N 52°24' E 004°46'0 0.0
2018-Jan-21 03:59N 52°24' E 004°46'0 0.0
2018-Jan-21 03:29N 52°24' E 004°46'0 0.0
2018-Jan-21 02:59N 52°24' E 004°46'0 0.0
2018-Jan-21 02:29N 52°24' E 004°46'0 0.1
2018-Jan-21 01:59N 52°24' E 004°46'0 0.1
2018-Jan-21 01:29N 52°24' E 004°46'0 0.0
2018-Jan-21 00:59N 52°24' E 004°46'0 0.0
2018-Jan-21 00:29N 52°24' E 004°46'0 0.0
2018-Jan-20 23:59N 52°24' E 004°46'0 0.0
2018-Jan-20 23:29N 52°24' E 004°46'0 0.0
2018-Jan-20 22:59N 52°24' E 004°46'0 0.1
2018-Jan-20 22:29N 52°24' E 004°46'0 0.1
2018-Jan-20 21:59N 52°24' E 004°46'0 0.0
2018-Jan-20 21:29N 52°24' E 004°46'0 0.0
2018-Jan-20 20:59N 52°24' E 004°46'0 0.0
2018-Jan-20 20:29N 52°24' E 004°46'0 0.0
2018-Jan-20 19:59N 52°24' E 004°46'0 0.0
2018-Jan-20 19:29N 52°24' E 004°46'0 0.0
2018-Jan-20 18:59N 52°24' E 004°46'0 0.0
2018-Jan-20 18:29N 52°24' E 004°46'0 0.0
2018-Jan-20 17:59N 52°24' E 004°46'0 0.0
2018-Jan-20 17:29N 52°24' E 004°46'0 0.0
2018-Jan-20 16:59N 52°24' E 004°46'0 0.0
2018-Jan-20 16:29N 52°24' E 004°46'0 0.0
2018-Jan-20 15:59N 52°24' E 004°46'0 0.0
2018-Jan-20 15:29N 52°24' E 004°46'0 0.0
2018-Jan-20 14:59N 52°24' E 004°46'0 0.0
2018-Jan-20 14:29N 52°24' E 004°46'0 0.0
2018-Jan-20 13:59N 52°24' E 004°46'0 0.0
2018-Jan-20 13:29N 52°24' E 004°46'0 0.0
2018-Jan-20 12:59N 52°24' E 004°46'0 0.0
2018-Jan-20 12:29N 52°24' E 004°46'0 0.0
2018-Jan-20 11:59N 52°24' E 004°46'0 0.0
2018-Jan-20 11:29N 52°24' E 004°46'0 0.0
2018-Jan-20 10:59N 52°24' E 004°46'0 0.0
2018-Jan-20 10:29N 52°24' E 004°46'0 0.0
2018-Jan-20 09:59N 52°24' E 004°46'0 0.0
2018-Jan-20 09:29N 52°24' E 004°46'0 0.0
2018-Jan-20 08:59N 52°24' E 004°46'0 0.0
2018-Jan-20 08:29N 52°24' E 004°46'0 0.0
2018-Jan-20 07:59N 52°24' E 004°46'0 0.0
2018-Jan-20 07:29N 52°24' E 004°46'0 0.0
2018-Jan-20 06:59N 52°24' E 004°46'0 0.0
2018-Jan-20 06:29N 52°24' E 004°46'0 0.0
2018-Jan-20 05:59N 52°24' E 004°46'0 0.0
2018-Jan-20 05:29N 52°24' E 004°46'0 0.0
2018-Jan-20 04:59N 52°24' E 004°46'0 0.0
2018-Jan-20 04:29N 52°24' E 004°46'0 0.0
2018-Jan-20 03:59N 52°24' E 004°46'0 0.0
2018-Jan-20 03:29N 52°24' E 004°46'0 0.0
2018-Jan-20 02:59N 52°24' E 004°46'0 0.0
2018-Jan-20 02:29N 52°24' E 004°46'0 0.0
2018-Jan-20 01:59N 52°24' E 004°46'0 0.0
2018-Jan-20 01:29N 52°24' E 004°46'0 0.0
2018-Jan-20 00:59N 52°24' E 004°46'0 0.0
2018-Jan-20 00:29N 52°24' E 004°46'0 0.0
2018-Jan-19 23:59N 52°24' E 004°46'0 0.0
2018-Jan-19 23:29N 52°24' E 004°46'0 0.0
2018-Jan-19 22:59N 52°24' E 004°46'0 0.0
2018-Jan-19 22:29N 52°24' E 004°46'0 0.0
2018-Jan-19 21:59N 52°24' E 004°46'0 0.0
2018-Jan-19 21:29N 52°24' E 004°46'0 0.0
2018-Jan-19 20:59N 52°24' E 004°46'0 0.0
2018-Jan-19 20:29N 52°24' E 004°46'0 0.0
2018-Jan-19 19:59N 52°24' E 004°46'0 0.0
2018-Jan-19 19:29N 52°24' E 004°46'0 0.0
2018-Jan-19 18:59N 52°24' E 004°46'0 0.0
2018-Jan-19 18:29N 52°24' E 004°46'0 0.0
2018-Jan-19 17:59N 52°24' E 004°46'0 0.0
2018-Jan-19 17:29N 52°24' E 004°46'0 0.0
2018-Jan-19 16:59N 52°24' E 004°46'0 0.0
2018-Jan-19 16:29N 52°24' E 004°46'0 0.0
2018-Jan-19 15:59N 52°24' E 004°46'0 0.0
2018-Jan-19 15:29N 52°24' E 004°46'0 0.0
2018-Jan-19 14:59N 52°24' E 004°46'0 0.0
2018-Jan-19 14:26N 52°24' E 004°46'0 0.0
2018-Jan-19 13:59N 52°24' E 004°46'0 0.0
2018-Jan-19 13:29N 52°24' E 004°46'0 0.0
2018-Jan-19 12:59N 52°24' E 004°46'0 0.0
2018-Jan-19 12:29N 52°24' E 004°46'0 0.0
2018-Jan-19 11:59N 52°24' E 004°46'0 0.0
2018-Jan-19 11:29N 52°24' E 004°46'0 0.0
2018-Jan-19 10:56N 52°24' E 004°46'0 0.0
2018-Jan-19 10:29N 52°24' E 004°46'0 0.0
2018-Jan-19 09:59N 52°24' E 004°46'0 0.0
2018-Jan-19 09:29N 52°24' E 004°46'0 0.0
2018-Jan-19 08:59N 52°24' E 004°46'0 0.0
2018-Jan-19 08:29N 52°24' E 004°46'0 0.0
2018-Jan-19 07:59N 52°24' E 004°46'0 0.0
2018-Jan-19 07:29N 52°24' E 004°46'0 0.0
2018-Jan-19 06:59N 52°24' E 004°46'0 0.0
2018-Jan-19 06:29N 52°24' E 004°46'0 0.0
2018-Jan-19 05:59N 52°24' E 004°46'0 0.0
2018-Jan-19 05:29N 52°24' E 004°46'0 0.0
2018-Jan-19 04:59N 52°24' E 004°46'0 0.0
2018-Jan-19 04:29N 52°24' E 004°46'0 0.0
2018-Jan-19 03:59N 52°24' E 004°46'0 0.0
2018-Jan-19 03:29N 52°24' E 004°46'0 0.0
2018-Jan-19 02:56N 52°24' E 004°46'0 0.0
2018-Jan-19 02:29N 52°24' E 004°46'0 0.0
2018-Jan-19 01:59N 52°24' E 004°46'0 0.0
2018-Jan-19 01:29N 52°24' E 004°46'0 0.0
2018-Jan-19 00:59N 52°24' E 004°46'0 0.0
2018-Jan-19 00:29N 52°24' E 004°46'0 0.0
2018-Jan-18 23:59N 52°24' E 004°46'0 0.0
2018-Jan-18 23:29N 52°24' E 004°46'0 0.0
2018-Jan-18 22:59N 52°24' E 004°46'0 0.0
2018-Jan-18 22:29N 52°24' E 004°46'0 0.0
2018-Jan-18 21:59N 52°24' E 004°46'0 0.0
2018-Jan-18 21:29N 52°24' E 004°46'0 0.0
2018-Jan-18 20:59N 52°24' E 004°46'0 0.0
2018-Jan-18 20:29N 52°24' E 004°46'0 0.0
2018-Jan-18 19:59N 52°24' E 004°46'0 0.0
2018-Jan-18 19:29N 52°24' E 004°46'0 0.0
2018-Jan-18 18:59N 52°24' E 004°46'0 0.0
2018-Jan-18 18:29N 52°24' E 004°46'0 0.0
2018-Jan-18 17:59N 52°24' E 004°46'0 0.0
2018-Jan-18 17:29N 52°24' E 004°46'0 0.0
2018-Jan-18 16:59N 52°24' E 004°46'0 0.0
2018-Jan-18 16:29N 52°24' E 004°46'0 0.0
2018-Jan-18 15:59N 52°24' E 004°46'0 0.0
2018-Jan-18 15:29N 52°24' E 004°46'0 0.0
2018-Jan-18 14:59N 52°24' E 004°46'0 0.0
2018-Jan-18 14:29N 52°24' E 004°46'0 0.0
2018-Jan-18 13:59N 52°24' E 004°46'0 0.0
2018-Jan-18 13:29N 52°24' E 004°46'0 0.0
2018-Jan-18 12:59N 52°24' E 004°46'0 0.0
2018-Jan-18 12:29N 52°24' E 004°46'0 0.0
2018-Jan-18 11:59N 52°24' E 004°46'0 0.0
2018-Jan-18 11:29N 52°24' E 004°46'0 0.0
2018-Jan-18 10:59N 52°24' E 004°46'0 0.0
2018-Jan-18 10:29N 52°24' E 004°46'0 0.0
2018-Jan-18 09:59N 52°24' E 004°46'0 0.0
2018-Jan-18 09:29N 52°24' E 004°46'0 0.0
2018-Jan-18 08:59N 52°24' E 004°46'0 0.0
2018-Jan-18 08:29N 52°24' E 004°46'0 0.0
2018-Jan-18 07:59N 52°24' E 004°46'0 0.0
2018-Jan-18 07:29N 52°24' E 004°46'0 0.0
2018-Jan-18 06:59N 52°24' E 004°46'0 0.0
2018-Jan-18 06:29N 52°24' E 004°46'0 0.0
2018-Jan-18 05:59N 52°24' E 004°46'0 0.0
2018-Jan-18 05:29N 52°24' E 004°46'0 0.0
2018-Jan-18 04:59N 52°24' E 004°46'0 1.0
2018-Jan-18 04:30N 52°25' E 004°47'1 2.9
2018-Jan-18 04:01N 52°25' E 004°49'1 2.9
2018-Jan-18 03:30N 52°24' E 004°49'0 0.1
2018-Jan-18 03:00N 52°24' E 004°49'0 0.0
2018-Jan-18 02:30N 52°24' E 004°49'0 0.0
2018-Jan-18 02:00N 52°24' E 004°49'0 0.0
2018-Jan-18 01:30N 52°24' E 004°49'0 0.0
2018-Jan-18 01:00N 52°24' E 004°49'0 0.0
2018-Jan-18 00:00N 52°24' E 004°49'0 0.1
2018-Jan-17 23:57N 52°24' E 004°49'  
Track history (hours):
 
Tides and Currents Weather Stations Pressure Air Temp Water Temp Dewpoint Dewpoint Depression Visibility Wind Speed Wind Dir Waves Ship Positions

High Beam

Last reported at 2018-Jan-27 02:58 UTC. Time now 2018-Feb-23 12:35 UTC.
Position N 49°44' W 003°50'.
Warning: this ship's position is 27 days out of date.

Length 180 m; draft 12 m.

Type: Tanker. MMSI: 354070000.

Date/timePositionNaut miles runAvg speedWind from/ knotsBaromVisibWave heightAir tempDewpointWater temp
2018-Jan-27 02:58N 49°44' W 003°50'611.9
2018-Jan-27 02:30N 49°46' W 003°42'711.8
2018-Jan-27 01:55N 49°49' W 003°32'511.8
2018-Jan-27 01:30N 49°51' W 003°25'611.8
2018-Jan-27 01:00N 49°53' W 003°17'612.0
2018-Jan-27 00:30N 49°55' W 003°08'612.3
2018-Jan-27 00:00N 49°58' W 002°60'713.2
2018-Jan-26 23:30N 50°01' W 002°50'713.3
2018-Jan-26 22:59N 50°03' W 002°40'813.7
2018-Jan-26 22:24N 50°05' W 002°28'6414.6
2018-Jan-26 18:02N 50°21' W 000°52'113.0
2018-Jan-26 17:59N 50°21' W 000°50'612.6
2018-Jan-26 17:29N 50°23' W 000°41'712.5
2018-Jan-26 16:55N 50°25' W 000°30'512.1
2018-Jan-26 16:31N 50°25' W 000°22'612.0
2018-Jan-26 16:00N 50°28' W 000°14'611.5
2018-Jan-26 15:31N 50°30' W 000°05'510.8
2018-Jan-26 15:00N 50°31' E 000°03'611.9
2018-Jan-26 14:30N 50°32' E 000°12'612.2
2018-Jan-26 14:00N 50°34' E 000°21'612.7
2018-Jan-26 13:30N 50°36' E 000°31'613.0
2018-Jan-26 13:00N 50°38' E 000°40'713.7
2018-Jan-26 12:31N 50°42' E 000°49'714.0
2018-Jan-26 12:00N 50°46' E 000°58'714.2
2018-Jan-26 11:30N 50°50' E 001°07'714.4
2018-Jan-26 11:00N 50°54' E 001°17'713.9
2018-Jan-26 10:31N 50°59' E 001°25'713.4
2018-Jan-26 10:00N 51°04' E 001°32'612.8
2018-Jan-26 09:30N 51°09' E 001°39'612.4
2018-Jan-26 09:01N 51°13' E 001°45'612.2
2018-Jan-26 08:30N 51°19' E 001°50'612.0
2018-Jan-26 08:00N 51°24' E 001°54'612.3
2018-Jan-26 07:30N 51°29' E 001°60'612.4
2018-Jan-26 07:00N 51°34' E 002°07'612.2
2018-Jan-26 06:30N 51°38' E 002°13'812.3
2018-Jan-26 05:49N 51°45' E 002°21'7612.8
2018-Jan-25 23:51N 52°32' E 003°60'512.4
2018-Jan-25 23:30N 52°31' E 004°07'612.1
2018-Jan-25 23:00N 52°30' E 004°17'510.9
2018-Jan-25 22:30N 52°29' E 004°25'4 8.4
2018-Jan-25 22:00N 52°28' E 004°32'3 5.5
2018-Jan-25 21:30N 52°28' E 004°37'0 0.1
2018-Jan-25 21:01N 52°28' E 004°37'1 1.5
2018-Jan-25 20:30N 52°28' E 004°38'1 1.7
2018-Jan-25 20:00N 52°28' E 004°39'4 8.0
2018-Jan-25 19:30N 52°26' E 004°45'3 5.6
2018-Jan-25 19:00N 52°25' E 004°49'0 0.6
2018-Jan-25 18:29N 52°24' E 004°49'0 0.0
2018-Jan-25 17:59N 52°24' E 004°49'0 0.0
2018-Jan-25 17:29N 52°24' E 004°49'0 0.0
2018-Jan-25 16:59N 52°24' E 004°49'0 0.0
2018-Jan-25 16:29N 52°24' E 004°49'0 0.0
2018-Jan-25 15:59N 52°24' E 004°49'0 0.0
2018-Jan-25 15:29N 52°24' E 004°49'0 0.0
2018-Jan-25 14:59N 52°24' E 004°49'0 0.0
2018-Jan-25 14:29N 52°24' E 004°49'0 0.0
2018-Jan-25 13:59N 52°24' E 004°49'0 0.0
2018-Jan-25 13:29N 52°24' E 004°49'0 0.0
2018-Jan-25 12:59N 52°24' E 004°49'0 0.0
2018-Jan-25 12:29N 52°24' E 004°49'0 0.0
2018-Jan-25 11:59N 52°24' E 004°49'0 0.0
2018-Jan-25 11:29N 52°24' E 004°49'0 0.0
2018-Jan-25 10:59N 52°24' E 004°49'0 0.0
2018-Jan-25 10:29N 52°24' E 004°49'0 0.0
2018-Jan-25 09:59N 52°24' E 004°49'0 0.0
2018-Jan-25 09:29N 52°24' E 004°49'0 0.0
2018-Jan-25 08:59N 52°24' E 004°49'0 0.0
2018-Jan-25 08:29N 52°24' E 004°49'0 0.0
2018-Jan-25 07:59N 52°24' E 004°49'0 0.0
2018-Jan-25 07:29N 52°24' E 004°49'0 0.0
2018-Jan-25 06:59N 52°24' E 004°49'0 0.0
2018-Jan-25 06:29N 52°24' E 004°49'0 0.0
2018-Jan-25 05:59N 52°24' E 004°49'0 0.0
2018-Jan-25 05:29N 52°24' E 004°49'0 0.0
2018-Jan-25 04:59N 52°24' E 004°49'0 0.0
2018-Jan-25 04:29N 52°24' E 004°49'0 0.0
2018-Jan-25 03:59N 52°24' E 004°49'0 0.0
2018-Jan-25 03:29N 52°24' E 004°49'0 0.0
2018-Jan-25 02:59N 52°24' E 004°49'0 0.0
2018-Jan-25 02:29N 52°24' E 004°49'0 0.0
2018-Jan-25 01:59N 52°24' E 004°49'0 0.0
2018-Jan-25 01:29N 52°24' E 004°49'0 0.0
2018-Jan-25 00:59N 52°24' E 004°49'0 0.0
2018-Jan-25 00:29N 52°24' E 004°49'0 0.0
2018-Jan-24 23:59N 52°24' E 004°49'0 0.0
2018-Jan-24 23:29N 52°24' E 004°49'0 0.0
2018-Jan-24 22:59N 52°24' E 004°49'0 0.0
2018-Jan-24 22:29N 52°24' E 004°49'0 0.0
2018-Jan-24 21:59N 52°24' E 004°49'0 0.0
2018-Jan-24 21:29N 52°24' E 004°49'0 0.0
2018-Jan-24 20:59N 52°24' E 004°49'0 0.0
2018-Jan-24 20:29N 52°24' E 004°49'0 0.0
2018-Jan-24 19:59N 52°24' E 004°49'0 0.0
2018-Jan-24 19:29N 52°24' E 004°49'0 0.0
2018-Jan-24 18:59N 52°24' E 004°49'0 0.0
2018-Jan-24 18:29N 52°24' E 004°49'0 0.0
2018-Jan-24 17:59N 52°24' E 004°49'0 0.0
2018-Jan-24 17:29N 52°24' E 004°49'0 0.0
2018-Jan-24 16:59N 52°24' E 004°49'0 0.0
2018-Jan-24 16:29N 52°24' E 004°49'0 0.0
2018-Jan-24 15:59N 52°24' E 004°49'0 0.0
2018-Jan-24 15:29N 52°24' E 004°49'0 0.0
2018-Jan-24 14:56N 52°24' E 004°49'0 0.0
2018-Jan-24 14:29N 52°24' E 004°49'0 0.0
2018-Jan-24 13:59N 52°24' E 004°49'0 0.0
2018-Jan-24 13:29N 52°24' E 004°49'0 0.0
2018-Jan-24 12:59N 52°24' E 004°49'0 0.0
2018-Jan-24 12:29N 52°24' E 004°49'0 0.0
2018-Jan-24 11:59N 52°24' E 004°49'0 0.0
2018-Jan-24 11:29N 52°24' E 004°49'0 0.0
2018-Jan-24 10:59N 52°24' E 004°49'0 0.0
2018-Jan-24 10:29N 52°24' E 004°49'0 0.0
2018-Jan-24 09:59N 52°24' E 004°49'0 0.0
2018-Jan-24 09:29N 52°24' E 004°49'0 0.0
2018-Jan-24 08:59N 52°24' E 004°49'0 0.0
2018-Jan-24 08:29N 52°24' E 004°49'0 0.0
2018-Jan-24 07:59N 52°24' E 004°49'0 0.0
2018-Jan-24 07:29N 52°24' E 004°49'0 0.0
2018-Jan-24 06:59N 52°24' E 004°49'0 0.0
2018-Jan-24 06:29N 52°24' E 004°49'0 0.0
2018-Jan-24 05:59N 52°24' E 004°49'0 0.0
2018-Jan-24 05:29N 52°24' E 004°49'0 0.0
2018-Jan-24 04:59N 52°24' E 004°49'0 0.0
2018-Jan-24 04:29N 52°24' E 004°49'0 0.0
2018-Jan-24 03:59N 52°24' E 004°49'0 0.0
2018-Jan-24 03:29N 52°24' E 004°49'0 0.0
2018-Jan-24 02:59N 52°24' E 004°49'0 0.0
2018-Jan-24 02:29N 52°24' E 004°49'0 0.0
2018-Jan-24 01:59N 52°24' E 004°49'0 0.0
2018-Jan-24 01:29N 52°24' E 004°49'0 0.0
2018-Jan-24 00:59N 52°24' E 004°49'0 0.0
2018-Jan-24 00:29N 52°24' E 004°49'0 0.0
2018-Jan-23 23:59N 52°24' E 004°49'0 0.0
2018-Jan-23 23:29N 52°24' E 004°49'0 0.0
2018-Jan-23 22:59N 52°24' E 004°49'0 0.0
2018-Jan-23 22:29N 52°24' E 004°49'0 0.0
2018-Jan-23 21:59N 52°24' E 004°49'0 0.0
2018-Jan-23 21:29N 52°24' E 004°49'0 0.0
2018-Jan-23 20:59N 52°24' E 004°49'0 0.0
2018-Jan-23 20:29N 52°24' E 004°49'0 0.0
2018-Jan-23 19:59N 52°24' E 004°49'0 0.0
2018-Jan-23 19:29N 52°24' E 004°49'0 0.0
2018-Jan-23 18:59N 52°24' E 004°49'0 0.0
2018-Jan-23 18:29N 52°24' E 004°49'0 0.0
2018-Jan-23 17:59N 52°24' E 004°49'0 0.0
2018-Jan-23 17:29N 52°24' E 004°49'0 0.0
2018-Jan-23 16:59N 52°24' E 004°49'0 0.0
2018-Jan-23 16:29N 52°24' E 004°49'0 0.0
2018-Jan-23 15:59N 52°24' E 004°49'0 0.0
2018-Jan-23 15:29N 52°24' E 004°49'0 0.0
2018-Jan-23 14:59N 52°24' E 004°49'0 0.1
2018-Jan-23 14:29N 52°24' E 004°49'0 0.1
2018-Jan-23 13:59N 52°24' E 004°49'0 0.0
2018-Jan-23 13:29N 52°24' E 004°49'0 0.0
2018-Jan-23 12:59N 52°24' E 004°49'0 0.0
2018-Jan-23 12:29N 52°24' E 004°49'0 0.0
2018-Jan-23 11:59N 52°24' E 004°49'0 0.0
2018-Jan-23 11:29N 52°24' E 004°49'0 0.0
2018-Jan-23 10:59N 52°24' E 004°49'0 0.0
2018-Jan-23 10:29N 52°24' E 004°49'0 0.0
2018-Jan-23 09:59N 52°24' E 004°49'0 0.0
2018-Jan-23 09:29N 52°24' E 004°49'0 0.0
2018-Jan-23 08:59N 52°24' E 004°49'0 0.0
2018-Jan-23 08:29N 52°24' E 004°49'0 0.0
2018-Jan-23 07:59N 52°24' E 004°49'0 0.0
2018-Jan-23 07:29N 52°24' E 004°49'0 0.0
2018-Jan-23 06:59N 52°24' E 004°49'0 0.0
2018-Jan-23 06:29N 52°24' E 004°49'0 0.0
2018-Jan-23 05:59N 52°24' E 004°49'0 0.0
2018-Jan-23 05:29N 52°24' E 004°49'0 0.1
2018-Jan-23 04:59N 52°24' E 004°49'0 0.1
2018-Jan-23 04:29N 52°24' E 004°49'0 0.0
2018-Jan-23 03:59N 52°24' E 004°49'0 0.0
2018-Jan-23 03:29N 52°24' E 004°49'0 0.0
2018-Jan-23 02:59N 52°24' E 004°49'0 0.0
2018-Jan-23 02:29N 52°24' E 004°49'0 0.0
2018-Jan-23 01:59N 52°24' E 004°49'0 0.0
2018-Jan-23 01:29N 52°24' E 004°49'0 0.0
2018-Jan-23 00:59N 52°24' E 004°49'0 0.0
2018-Jan-23 00:29N 52°24' E 004°49'0 0.0
2018-Jan-22 23:59N 52°24' E 004°49'0 0.0
2018-Jan-22 23:29N 52°24' E 004°49'0 0.0
2018-Jan-22 22:59N 52°24' E 004°49'0 0.0
2018-Jan-22 22:29N 52°24' E 004°49'0 0.0
2018-Jan-22 21:59N 52°24' E 004°49'0 0.0
2018-Jan-22 21:29N 52°24' E 004°49'0 0.0
2018-Jan-22 20:59N 52°24' E 004°49'0 0.0
2018-Jan-22 20:29N 52°24' E 004°49'0 0.0
2018-Jan-22 19:59N 52°24' E 004°49'0 0.0
2018-Jan-22 19:29N 52°24' E 004°49'0 0.0
2018-Jan-22 18:59N 52°24' E 004°49'0 0.0
2018-Jan-22 18:29N 52°24' E 004°49'0 0.0
2018-Jan-22 17:59N 52°24' E 004°49'0 0.0
2018-Jan-22 17:29N 52°24' E 004°49'0 0.0
2018-Jan-22 16:59N 52°24' E 004°49'0 0.0
2018-Jan-22 16:29N 52°24' E 004°49'0 0.0
2018-Jan-22 15:59N 52°24' E 004°49'0 0.0
2018-Jan-22 15:29N 52°24' E 004°49'0 0.0
2018-Jan-22 14:59N 52°24' E 004°49'0 0.0
2018-Jan-22 14:29N 52°24' E 004°49'0 0.0
2018-Jan-22 13:59N 52°24' E 004°49'0 0.0
2018-Jan-22 13:29N 52°24' E 004°49'0 0.0
2018-Jan-22 12:59N 52°24' E 004°49'0 0.0
2018-Jan-22 12:29N 52°24' E 004°49'0 0.0
2018-Jan-22 11:59N 52°24' E 004°49'0 0.0
2018-Jan-22 11:29N 52°24' E 004°49'0 0.0
2018-Jan-22 10:59N 52°24' E 004°49'0 0.0
2018-Jan-22 10:29N 52°24' E 004°49'0 0.0
2018-Jan-22 09:59N 52°24' E 004°49'0 0.0
2018-Jan-22 09:29N 52°24' E 004°49'0 0.0
2018-Jan-22 08:59N 52°24' E 004°49'0 0.0
2018-Jan-22 08:29N 52°24' E 004°49'1 2.0
2018-Jan-22 08:00N 52°25' E 004°49'1 2.9
2018-Jan-22 07:30N 52°24' E 004°47'0 0.7
2018-Jan-22 06:59N 52°24' E 004°46'0 0.0
2018-Jan-22 06:29N 52°24' E 004°46'0 0.0
2018-Jan-22 05:59N 52°24' E 004°46'0 0.0
2018-Jan-22 05:29N 52°24' E 004°46'0 0.0
2018-Jan-22 04:59N 52°24' E 004°46'0 0.0
2018-Jan-22 04:29N 52°24' E 004°46'0 0.0
2018-Jan-22 03:59N 52°24' E 004°46'0 0.0
2018-Jan-22 03:29N 52°24' E 004°46'0 0.0
2018-Jan-22 02:59N 52°24' E 004°46'0 0.0
2018-Jan-22 02:29N 52°24' E 004°46'0 0.0
2018-Jan-22 01:59N 52°24' E 004°46'0 0.0
2018-Jan-22 01:29N 52°24' E 004°46'0 0.0
2018-Jan-22 00:59N 52°24' E 004°46'0 0.0
2018-Jan-22 00:29N 52°24' E 004°46'0 0.0
2018-Jan-21 23:59N 52°24' E 004°46'0 0.0
2018-Jan-21 23:29N 52°24' E 004°46'0 0.0
2018-Jan-21 22:59N 52°24' E 004°46'0 0.0
2018-Jan-21 22:29N 52°24' E 004°46'0 0.0
2018-Jan-21 21:59N 52°24' E 004°46'0 0.0
2018-Jan-21 21:29N 52°24' E 004°46'0 0.0
2018-Jan-21 20:59N 52°24' E 004°46'0 0.0
2018-Jan-21 20:29N 52°24' E 004°46'0 0.0
2018-Jan-21 19:59N 52°24' E 004°46'0 0.0
2018-Jan-21 19:29N 52°24' E 004°46'0 0.0
2018-Jan-21 18:59N 52°24' E 004°46'0 0.0
2018-Jan-21 18:26N 52°24' E 004°46'0 0.0
2018-Jan-21 17:59N 52°24' E 004°46'0 0.0
2018-Jan-21 17:29N 52°24' E 004°46'0 0.0
2018-Jan-21 16:59N 52°24' E 004°46'0 0.0
2018-Jan-21 16:29N 52°24' E 004°46'0 0.0
2018-Jan-21 15:59N 52°24' E 004°46'0 0.0
2018-Jan-21 15:29N 52°24' E 004°46'0 0.0
2018-Jan-21 14:59N 52°24' E 004°46'0 0.0
2018-Jan-21 14:29N 52°24' E 004°46'0 0.0
2018-Jan-21 13:59N 52°24' E 004°46'0 0.0
2018-Jan-21 13:29N 52°24' E 004°46'0 0.0
2018-Jan-21 12:59N 52°24' E 004°46'0 0.0
2018-Jan-21 12:29N 52°24' E 004°46'0 0.0
2018-Jan-21 11:59N 52°24' E 004°46'0 0.0
2018-Jan-21 11:29N 52°24' E 004°46'0 0.0
2018-Jan-21 10:59N 52°24' E 004°46'0 0.0
2018-Jan-21 10:29N 52°24' E 004°46'0 0.0
2018-Jan-21 09:59N 52°24' E 004°46'0 0.0
2018-Jan-21 09:29N 52°24' E 004°46'0 0.0
2018-Jan-21 08:59N 52°24' E 004°46'0 0.0
2018-Jan-21 08:29N 52°24' E 004°46'0 0.0
2018-Jan-21 07:59N 52°24' E 004°46'0 0.0
2018-Jan-21 07:29N 52°24' E 004°46'0 0.0
2018-Jan-21 06:59N 52°24' E 004°46'0 0.0
2018-Jan-21 06:29N 52°24' E 004°46'0 0.0
2018-Jan-21 05:59N 52°24' E 004°46'0 0.0
2018-Jan-21 05:29N 52°24' E 004°46'0 0.0
2018-Jan-21 04:59N 52°24' E 004°46'0 0.0
2018-Jan-21 04:29N 52°24' E 004°46'0 0.0
2018-Jan-21 03:59N 52°24' E 004°46'0 0.0
2018-Jan-21 03:29N 52°24' E 004°46'0 0.0
2018-Jan-21 02:59N 52°24' E 004°46'0 0.0
2018-Jan-21 02:29N 52°24' E 004°46'0 0.1
2018-Jan-21 01:59N 52°24' E 004°46'0 0.1
2018-Jan-21 01:29N 52°24' E 004°46'0 0.0
2018-Jan-21 00:59N 52°24' E 004°46'0 0.0
2018-Jan-21 00:29N 52°24' E 004°46'0 0.0
2018-Jan-20 23:59N 52°24' E 004°46'0 0.0
2018-Jan-20 23:29N 52°24' E 004°46'0 0.0
2018-Jan-20 22:59N 52°24' E 004°46'0 0.1
2018-Jan-20 22:29N 52°24' E 004°46'0 0.1
2018-Jan-20 21:59N 52°24' E 004°46'0 0.0
2018-Jan-20 21:29N 52°24' E 004°46'0 0.0
2018-Jan-20 20:59N 52°24' E 004°46'0 0.0
2018-Jan-20 20:29N 52°24' E 004°46'0 0.0
2018-Jan-20 19:59N 52°24' E 004°46'0 0.0
2018-Jan-20 19:29N 52°24' E 004°46'0 0.0
2018-Jan-20 18:59N 52°24' E 004°46'0 0.0
2018-Jan-20 18:29N 52°24' E 004°46'0 0.0
2018-Jan-20 17:59N 52°24' E 004°46'0 0.0
2018-Jan-20 17:29N 52°24' E 004°46'0 0.0
2018-Jan-20 16:59N 52°24' E 004°46'0 0.0
2018-Jan-20 16:29N 52°24' E 004°46'0 0.0
2018-Jan-20 15:59N 52°24' E 004°46'0 0.0
2018-Jan-20 15:29N 52°24' E 004°46'0 0.0
2018-Jan-20 14:59N 52°24' E 004°46'0 0.0
2018-Jan-20 14:29N 52°24' E 004°46'0 0.0
2018-Jan-20 13:59N 52°24' E 004°46'0 0.0
2018-Jan-20 13:29N 52°24' E 004°46'0 0.0
2018-Jan-20 12:59N 52°24' E 004°46'0 0.0
2018-Jan-20 12:29N 52°24' E 004°46'0 0.0
2018-Jan-20 11:59N 52°24' E 004°46'0 0.0
2018-Jan-20 11:29N 52°24' E 004°46'0 0.0
2018-Jan-20 10:59N 52°24' E 004°46'0 0.0
2018-Jan-20 10:29N 52°24' E 004°46'0 0.0
2018-Jan-20 09:59N 52°24' E 004°46'0 0.0
2018-Jan-20 09:29N 52°24' E 004°46'0 0.0
2018-Jan-20 08:59N 52°24' E 004°46'0 0.0
2018-Jan-20 08:29N 52°24' E 004°46'0 0.0
2018-Jan-20 07:59N 52°24' E 004°46'0 0.0
2018-Jan-20 07:29N 52°24' E 004°46'0 0.0
2018-Jan-20 06:59N 52°24' E 004°46'0 0.0
2018-Jan-20 06:29N 52°24' E 004°46'0 0.0
2018-Jan-20 05:59N 52°24' E 004°46'0 0.0
2018-Jan-20 05:29N 52°24' E 004°46'0 0.0
2018-Jan-20 04:59N 52°24' E 004°46'0 0.0
2018-Jan-20 04:29N 52°24' E 004°46'0 0.0
2018-Jan-20 03:59N 52°24' E 004°46'0 0.0
2018-Jan-20 03:29N 52°24' E 004°46'0 0.0
2018-Jan-20 02:59N 52°24' E 004°46'0 0.0
2018-Jan-20 02:29N 52°24' E 004°46'0 0.0
2018-Jan-20 01:59N 52°24' E 004°46'0 0.0
2018-Jan-20 01:29N 52°24' E 004°46'0 0.0
2018-Jan-20 00:59N 52°24' E 004°46'0 0.0
2018-Jan-20 00:29N 52°24' E 004°46'0 0.0
2018-Jan-19 23:59N 52°24' E 004°46'0 0.0
2018-Jan-19 23:29N 52°24' E 004°46'0 0.0
2018-Jan-19 22:59N 52°24' E 004°46'0 0.0
2018-Jan-19 22:29N 52°24' E 004°46'0 0.0
2018-Jan-19 21:59N 52°24' E 004°46'0 0.0
2018-Jan-19 21:29N 52°24' E 004°46'0 0.0
2018-Jan-19 20:59N 52°24' E 004°46'0 0.0
2018-Jan-19 20:29N 52°24' E 004°46'0 0.0
2018-Jan-19 19:59N 52°24' E 004°46'0 0.0
2018-Jan-19 19:29N 52°24' E 004°46'0 0.0
2018-Jan-19 18:59N 52°24' E 004°46'0 0.0
2018-Jan-19 18:29N 52°24' E 004°46'0 0.0
2018-Jan-19 17:59N 52°24' E 004°46'0 0.0
2018-Jan-19 17:29N 52°24' E 004°46'0 0.0
2018-Jan-19 16:59N 52°24' E 004°46'0 0.0
2018-Jan-19 16:29N 52°24' E 004°46'0 0.0
2018-Jan-19 15:59N 52°24' E 004°46'0 0.0
2018-Jan-19 15:29N 52°24' E 004°46'0 0.0
2018-Jan-19 14:59N 52°24' E 004°46'0 0.0
2018-Jan-19 14:26N 52°24' E 004°46'0 0.0
2018-Jan-19 13:59N 52°24' E 004°46'0 0.0
2018-Jan-19 13:29N 52°24' E 004°46'0 0.0
2018-Jan-19 12:59N 52°24' E 004°46'0 0.0
2018-Jan-19 12:29N 52°24' E 004°46'0 0.0
2018-Jan-19 11:59N 52°24' E 004°46'0 0.0
2018-Jan-19 11:29N 52°24' E 004°46'0 0.0
2018-Jan-19 10:56N 52°24' E 004°46'0 0.0
2018-Jan-19 10:29N 52°24' E 004°46'0 0.0
2018-Jan-19 09:59N 52°24' E 004°46'0 0.0
2018-Jan-19 09:29N 52°24' E 004°46'0 0.0
2018-Jan-19 08:59N 52°24' E 004°46'0 0.0
2018-Jan-19 08:29N 52°24' E 004°46'0 0.0
2018-Jan-19 07:59N 52°24' E 004°46'0 0.0
2018-Jan-19 07:29N 52°24' E 004°46'0 0.0
2018-Jan-19 06:59N 52°24' E 004°46'0 0.0
2018-Jan-19 06:29N 52°24' E 004°46'0 0.0
2018-Jan-19 05:59N 52°24' E 004°46'0 0.0
2018-Jan-19 05:29N 52°24' E 004°46'0 0.0
2018-Jan-19 04:59N 52°24' E 004°46'0 0.0
2018-Jan-19 04:29N 52°24' E 004°46'0 0.0
2018-Jan-19 03:59N 52°24' E 004°46'0 0.0
2018-Jan-19 03:29N 52°24' E 004°46'0 0.0
2018-Jan-19 02:56N 52°24' E 004°46'0 0.0
2018-Jan-19 02:29N 52°24' E 004°46'0 0.0
2018-Jan-19 01:59N 52°24' E 004°46'0 0.0
2018-Jan-19 01:29N 52°24' E 004°46'0 0.0
2018-Jan-19 00:59N 52°24' E 004°46'0 0.0
2018-Jan-19 00:29N 52°24' E 004°46'0 0.0
2018-Jan-18 23:59N 52°24' E 004°46'0 0.0
2018-Jan-18 23:29N 52°24' E 004°46'0 0.0
2018-Jan-18 22:59N 52°24' E 004°46'0 0.0
2018-Jan-18 22:29N 52°24' E 004°46'0 0.0
2018-Jan-18 21:59N 52°24' E 004°46'0 0.0
2018-Jan-18 21:29N 52°24' E 004°46'0 0.0
2018-Jan-18 20:59N 52°24' E 004°46'0 0.0
2018-Jan-18 20:29N 52°24' E 004°46'0 0.0
2018-Jan-18 19:59N 52°24' E 004°46'0 0.0
2018-Jan-18 19:29N 52°24' E 004°46'0 0.0
2018-Jan-18 18:59N 52°24' E 004°46'0 0.0
2018-Jan-18 18:29N 52°24' E 004°46'0 0.0
2018-Jan-18 17:59N 52°24' E 004°46'0 0.0
2018-Jan-18 17:29N 52°24' E 004°46'0 0.0
2018-Jan-18 16:59N 52°24' E 004°46'0 0.0
2018-Jan-18 16:29N 52°24' E 004°46'0 0.0
2018-Jan-18 15:59N 52°24' E 004°46'0 0.0
2018-Jan-18 15:29N 52°24' E 004°46'0 0.0
2018-Jan-18 14:59N 52°24' E 004°46'0 0.0
2018-Jan-18 14:29N 52°24' E 004°46'0 0.0
2018-Jan-18 13:59N 52°24' E 004°46'0 0.0
2018-Jan-18 13:29N 52°24' E 004°46'0 0.0
2018-Jan-18 12:59N 52°24' E 004°46'0 0.0
2018-Jan-18 12:29N 52°24' E 004°46'0 0.0
2018-Jan-18 11:59N 52°24' E 004°46'0 0.0
2018-Jan-18 11:29N 52°24' E 004°46'0 0.0
2018-Jan-18 10:59N 52°24' E 004°46'0 0.0
2018-Jan-18 10:29N 52°24' E 004°46'0 0.0
2018-Jan-18 09:59N 52°24' E 004°46'0 0.0
2018-Jan-18 09:29N 52°24' E 004°46'0 0.0
2018-Jan-18 08:59N 52°24' E 004°46'0 0.0
2018-Jan-18 08:29N 52°24' E 004°46'0 0.0
2018-Jan-18 07:59N 52°24' E 004°46'0 0.0
2018-Jan-18 07:29N 52°24' E 004°46'0 0.0
2018-Jan-18 06:59N 52°24' E 004°46'0 0.0
2018-Jan-18 06:29N 52°24' E 004°46'0 0.0
2018-Jan-18 05:59N 52°24' E 004°46'0 0.0
2018-Jan-18 05:29N 52°24' E 004°46'0 0.0
2018-Jan-18 04:59N 52°24' E 004°46'0 1.0
2018-Jan-18 04:30N 52°25' E 004°47'1 2.9
2018-Jan-18 04:01N 52°25' E 004°49'1 2.9
2018-Jan-18 03:30N 52°24' E 004°49'0 0.1
2018-Jan-18 03:00N 52°24' E 004°49'0 0.0
2018-Jan-18 02:30N 52°24' E 004°49'0 0.0
2018-Jan-18 02:00N 52°24' E 004°49'0 0.0
2018-Jan-18 01:30N 52°24' E 004°49'0 0.0
2018-Jan-18 01:00N 52°24' E 004°49'0 0.0
2018-Jan-18 00:00N 52°24' E 004°49'0 0.1
2018-Jan-17 23:57N 52°24' E 004°49'  

Dump ship's entire track history